Chapleau Airport
CYLD : now visible

Airfield :











YOU CAN JOIN US ON...

 
LOGIN :

Register | Disclaimer

   EN    FR    IT 

 









Legend :    VFR   Marginal VFR   IFR   Intensive IFR   Very Intensive IFR
Visi :
Ceiling :
>= 8 km
>= 3000ft
5 to 8 km
1000 to 3000 ft
1500m to 5 km
500 to 1000 ft
800 to 1500m
200 to 500 ft
< 800m
< 200 ft
Symbols :   Thunderstorms  Fog  Heavy snow  Heavy precipitations  Wind > 20 kt






- Airport Elevation : 1470 ft
- IATA code : YLD


CYLD - Chapleau

CURRENT METAR :
  • 151500Z 26003KT 220V300 15SM OVC019 21/18 A2979 RMK SC8 SLP090 DENSITY ALT 2700FT

EXPIRED METARs :
  • 151400Z 00000KT 15SM BKN013 21/18 A2980 RMK SC7 SLP095 DENSITY ALT 2700FT
  • 151300Z 31003KT 290V030 15SM FEW007 BKN025 20/18 A2980 RMK CF1CU5 SLP093 DENSITY ALT 2600FT
  • 151200Z 32003KT 260V010 15SM FEW004 SCT015 19/19 A2979 RMK CF1CU3 SLP092 DENSITY ALT 2500FT
  • 151100Z CCA 28003KT 250V310 15SM FEW020 19/19 A2979 RMK CF1 BR OVA WATER SLP089 DENSITY ALT 2400FT

TAF TAF CYLD
Valid from the 15 at 14:00 until the 16 at 01:00 UTC


151341Z 1514/1601 31005KT P6SM SCT020
TEMPO 1514/1516 BKN020
FM152200 22008KT P6SM BKN140 RMK NXT FCST BY 152000Z
CZYZ FIR / North America



MET'MAP, your aeronautical weather chart ! - Copyright ORBIFLY December 2007 - Disclaimer

ORBIFLY MET'MAP TEAM :

Programming & Development : Alexandra Zaïnal
Original concept : Baudouin d'Aumeries
Technical & hardware support : Manuel Goepfert
Assistance : Marc-Olivier Méhu




SOURCES & CREDITS :

   NOAA       Earth
Advisory